sensor_id;sensor_type;location;lat;lon;timestamp;pressure;altitude;pressure_sealevel;temperature;humidity
59757;BME280;45631;51.962;5.974;2022-12-07T00:01:38;101618.94;;;3.16;100.00
59757;BME280;45631;51.962;5.974;2022-12-07T00:04:12;101619.75;;;3.18;100.00
59757;BME280;45631;51.962;5.974;2022-12-07T00:06:41;101619.75;;;3.18;100.00
59757;BME280;45631;51.962;5.974;2022-12-07T00:09:14;101617.06;;;3.21;100.00
59757;BME280;45631;51.962;5.974;2022-12-07T00:11:43;101616.25;;;3.19;100.00
59757;BME280;45631;51.962;5.974;2022-12-07T00:14:14;101617.13;;;3.18;100.00
59757;BME280;45631;51.962;5.974;2022-12-07T00:16:42;101625.91;;;3.14;100.00
59757;BME280;45631;51.962;5.974;2022-12-07T00:19:12;101618.22;;;3.10;100.00
59757;BME280;45631;51.962;5.974;2022-12-07T00:21:41;101620.88;;;3.05;100.00
59757;BME280;45631;51.962;5.974;2022-12-07T00:24:12;101616.59;;;3.02;100.00
59757;BME280;45631;51.962;5.974;2022-12-07T00:26:41;101614.03;;;3.01;100.00
59757;BME280;45631;51.962;5.974;2022-12-07T00:29:13;101614.97;;;2.98;100.00
59757;BME280;45631;51.962;5.974;2022-12-07T00:31:42;101617.53;;;3.00;100.00
59757;BME280;45631;51.962;5.974;2022-12-07T00:34:13;101612.53;;;2.91;100.00
59757;BME280;45631;51.962;5.974;2022-12-07T00:36:42;101609.97;;;2.89;100.00
59757;BME280;45631;51.962;5.974;2022-12-07T00:39:11;101606.59;;;2.85;100.00
59757;BME280;45631;51.962;5.974;2022-12-07T00:41:40;101606.66;;;2.81;100.00
59757;BME280;45631;51.962;5.974;2022-12-07T00:44:08;101608.47;;;2.77;100.00
59757;BME280;45631;51.962;5.974;2022-12-07T00:46:36;101607.72;;;2.72;100.00
59757;BME280;45631;51.962;5.974;2022-12-07T00:49:05;101607.75;;;2.70;100.00
59757;BME280;45631;51.962;5.974;2022-12-07T00:51:33;101604.25;;;2.73;100.00
59757;BME280;45631;51.962;5.974;2022-12-07T00:54:01;101602.66;;;2.66;100.00
59757;BME280;45631;51.962;5.974;2022-12-07T00:56:34;101595.81;;;2.60;100.00
59757;BME280;45631;51.962;5.974;2022-12-07T00:59:03;101595.84;;;2.59;100.00
59757;BME280;45631;51.962;5.974;2022-12-07T01:01:35;101590.78;;;2.52;100.00
59757;BME280;45631;51.962;5.974;2022-12-07T01:04:05;101594.28;;;2.51;100.00
59757;BME280;45631;51.962;5.974;2022-12-07T01:06:33;101591.69;;;2.51;100.00
59757;BME280;45631;51.962;5.974;2022-12-07T01:09:02;101595.19;;;2.49;100.00
59757;BME280;45631;51.962;5.974;2022-12-07T01:11:31;101595.25;;;2.46;100.00
59757;BME280;45631;51.962;5.974;2022-12-07T01:14:01;101586.72;;;2.39;100.00
59757;BME280;45631;51.962;5.974;2022-12-07T01:16:31;101593.63;;;2.39;100.00
59757;BME280;45631;51.962;5.974;2022-12-07T01:19:01;101597.34;;;2.27;100.00
59757;BME280;45631;51.962;5.974;2022-12-07T01:21:33;101600.81;;;2.26;100.00
59757;BME280;45631;51.962;5.974;2022-12-07T01:24:06;101603.31;;;2.32;100.00
59757;BME280;45631;51.962;5.974;2022-12-07T01:26:35;101603.34;;;2.29;100.00
59757;BME280;45631;51.962;5.974;2022-12-07T01:29:05;101610.31;;;2.27;100.00
59757;BME280;45631;51.962;5.974;2022-12-07T01:31:33;101607.81;;;2.20;100.00
59757;BME280;45631;51.962;5.974;2022-12-07T01:34:01;101607.81;;;2.20;100.00
59757;BME280;45631;51.962;5.974;2022-12-07T01:36:33;101609.63;;;2.15;100.00
59757;BME280;45631;51.962;5.974;2022-12-07T01:39:03;101615.69;;;2.16;100.00
59757;BME280;45631;51.962;5.974;2022-12-07T01:41:35;101610.63;;;2.08;100.00
59757;BME280;45631;51.962;5.974;2022-12-07T01:44:14;101611.50;;;2.07;100.00
59757;BME280;45631;51.962;5.974;2022-12-07T01:46:44;101605.53;;;2.03;100.00
59757;BME280;45631;51.962;5.974;2022-12-07T01:49:16;101600.38;;;2.02;100.00
59757;BME280;45631;51.962;5.974;2022-12-07T01:51:46;101597.81;;;1.99;100.00
59757;BME280;45631;51.962;5.974;2022-12-07T01:54:16;101590.06;;;1.97;100.00
59757;BME280;45631;51.962;5.974;2022-12-07T01:56:49;101595.22;;;1.99;100.00
59757;BME280;45631;51.962;5.974;2022-12-07T01:59:23;101590.94;;;1.96;100.00
59757;BME280;45631;51.962;5.974;2022-12-07T02:01:52;101595.22;;;1.99;100.00
59757;BME280;45631;51.962;5.974;2022-12-07T02:04:22;101594.34;;;2.00;100.00
59757;BME280;45631;51.962;5.974;2022-12-07T02:06:51;101596.22;;;1.92;100.00
59757;BME280;45631;51.962;5.974;2022-12-07T02:09:19;101591.09;;;1.89;100.00
59757;BME280;45631;51.962;5.974;2022-12-07T02:11:48;101592.00;;;1.84;100.00
59757;BME280;45631;51.962;5.974;2022-12-07T02:14:17;101587.75;;;1.80;100.00
59757;BME280;45631;51.962;5.974;2022-12-07T02:16:56;101587.81;;;1.77;100.00
59757;BME280;45631;51.962;5.974;2022-12-07T02:23:03;101593.06;;;1.73;100.00
59757;BME280;45631;51.962;5.974;2022-12-07T02:26:00;101591.34;;;1.72;100.00
59757;BME280;45631;51.962;5.974;2022-12-07T02:28:35;101596.63;;;1.67;100.00
59757;BME280;45631;51.962;5.974;2022-12-07T02:31:11;101600.16;;;1.63;100.00
59757;BME280;45631;51.962;5.974;2022-12-07T02:33:43;101596.69;;;1.64;100.00
59757;BME280;45631;51.962;5.974;2022-12-07T02:36:18;101601.06;;;1.59;100.00
59757;BME280;45631;51.962;5.974;2022-12-07T02:38:53;101602.06;;;1.51;100.00
59757;BME280;45631;51.962;5.974;2022-12-07T02:41:26;101599.53;;;1.45;100.00
59757;BME280;45631;51.962;5.974;2022-12-07T02:43:59;101594.41;;;1.42;100.00
59757;BME280;45631;51.962;5.974;2022-12-07T02:46:32;101599.53;;;1.45;100.00
59757;BME280;45631;51.962;5.974;2022-12-07T02:49:02;101598.72;;;1.42;100.00
59757;BME280;45631;51.962;5.974;2022-12-07T02:51:31;101590.22;;;1.35;100.00
59757;BME280;45631;51.962;5.974;2022-12-07T02:54:01;101592.78;;;1.33;100.00
59757;BME280;45631;51.962;5.974;2022-12-07T02:56:37;101586.75;;;1.33;100.00
59757;BME280;45631;51.962;5.974;2022-12-07T02:59:18;101587.66;;;1.30;100.00
59757;BME280;45631;51.962;5.974;2022-12-07T03:02:00;101591.16;;;1.28;100.00
59757;BME280;45631;51.962;5.974;2022-12-07T03:04:42;101592.88;;;1.29;100.00
59757;BME280;45631;51.962;5.974;2022-12-07T03:07:20;101595.50;;;1.26;100.00
59757;BME280;45631;51.962;5.974;2022-12-07T03:09:55;101599.78;;;1.27;100.00
59757;BME280;45631;51.962;5.974;2022-12-07T03:12:31;101595.53;;;1.23;100.00
59757;BME280;45631;51.962;5.974;2022-12-07T03:15:05;101592.16;;;1.19;100.00
59757;BME280;45631;51.962;5.974;2022-12-07T03:17:39;101601.63;;;1.22;100.00
59757;BME280;45631;51.962;5.974;2022-12-07T03:20:14;101598.13;;;1.23;100.00
59757;BME280;45631;51.962;5.974;2022-12-07T03:22:46;101592.94;;;1.23;100.00
59757;BME280;45631;51.962;5.974;2022-12-07T03:25:16;101592.94;;;1.26;100.00
59757;BME280;45631;51.962;5.974;2022-12-07T03:27:49;101595.47;;;1.29;100.00
59757;BME280;45631;51.962;5.974;2022-12-07T03:30:21;101584.25;;;1.27;100.00
59757;BME280;45631;51.962;5.974;2022-12-07T03:32:56;101589.38;;;1.31;100.00
59757;BME280;45631;51.962;5.974;2022-12-07T03:35:29;101588.44;;;1.37;100.00
59757;BME280;45631;51.962;5.974;2022-12-07T03:38:10;101588.38;;;1.40;100.00
59757;BME280;45631;51.962;5.974;2022-12-07T03:40:46;101579.69;;;1.43;100.00
59757;BME280;45631;51.962;5.974;2022-12-07T03:43:18;101571.88;;;1.47;100.00
59757;BME280;45631;51.962;5.974;2022-12-07T03:45:54;101571.84;;;1.49;100.00
59757;BME280;45631;51.962;5.974;2022-12-07T03:48:32;101568.38;;;1.48;100.00
59757;BME280;45631;51.962;5.974;2022-12-07T03:51:13;101568.38;;;1.48;100.00
59757;BME280;45631;51.962;5.974;2022-12-07T03:53:47;101570.06;;;1.51;100.00
59757;BME280;45631;51.962;5.974;2022-12-07T03:56:17;101570.91;;;1.53;100.00
59757;BME280;45631;51.962;5.974;2022-12-07T03:58:46;101573.47;;;1.55;100.00
59757;BME280;45631;51.962;5.974;2022-12-07T04:01:14;101569.09;;;1.58;100.00
59757;BME280;45631;51.962;5.974;2022-12-07T04:03:44;101570.78;;;1.62;100.00
59757;BME280;45631;51.962;5.974;2022-12-07T04:06:12;101579.44;;;1.61;100.00
59757;BME280;45631;51.962;5.974;2022-12-07T04:08:40;101568.19;;;1.62;100.00
59757;BME280;45631;51.962;5.974;2022-12-07T04:11:08;101562.91;;;1.67;100.00
59757;BME280;45631;51.962;5.974;2022-12-07T04:13:36;101569.78;;;1.69;100.00
59757;BME280;45631;51.962;5.974;2022-12-07T04:16:18;101558.50;;;1.72;100.00
59757;BME280;45631;51.962;5.974;2022-12-07T04:18:48;101565.38;;;1.73;100.00
59757;BME280;45631;51.962;5.974;2022-12-07T04:21:16;101562.78;;;1.73;100.00
59757;BME280;45631;51.962;5.974;2022-12-07T04:23:44;101561.91;;;1.74;100.00
59757;BME280;45631;51.962;5.974;2022-12-07T04:26:13;101563.69;;;1.72;100.00
59757;BME280;45631;51.962;5.974;2022-12-07T04:28:41;101561.94;;;1.73;100.00
59757;BME280;45631;51.962;5.974;2022-12-07T04:31:09;101563.69;;;1.72;100.00
59757;BME280;45631;51.962;5.974;2022-12-07T04:33:37;101557.66;;;1.70;100.00
59757;BME280;45631;51.962;5.974;2022-12-07T04:36:07;101569.84;;;1.66;100.00
59757;BME280;45631;51.962;5.974;2022-12-07T04:38:35;101567.19;;;1.69;100.00
59757;BME280;45631;51.962;5.974;2022-12-07T04:41:05;101563.69;;;1.72;100.00
59757;BME280;45631;51.962;5.974;2022-12-07T04:43:33;101567.97;;;1.73;100.00
59757;BME280;45631;51.962;5.974;2022-12-07T04:46:02;101572.34;;;1.71;100.00
59757;BME280;45631;51.962;5.974;2022-12-07T04:48:30;101577.47;;;1.74;100.00
59757;BME280;45631;51.962;5.974;2022-12-07T04:50:58;101573.19;;;1.72;100.00
59757;BME280;45631;51.962;5.974;2022-12-07T04:53:27;101563.72;;;1.71;100.00
59757;BME280;45631;51.962;5.974;2022-12-07T04:55:56;101549.88;;;1.70;100.00
59757;BME280;45631;51.962;5.974;2022-12-07T04:58:24;101548.09;;;1.74;100.00
59757;BME280;45631;51.962;5.974;2022-12-07T05:00:54;101545.47;;;1.75;100.00
59757;BME280;45631;51.962;5.974;2022-12-07T05:03:22;101552.38;;;1.76;100.00
59757;BME280;45631;51.962;5.974;2022-12-07T05:05:50;101548.91;;;1.77;100.00
59757;BME280;45631;51.962;5.974;2022-12-07T05:08:18;101550.59;;;1.78;100.00
59757;BME280;45631;51.962;5.974;2022-12-07T05:10:49;101550.59;;;1.78;100.00
59757;BME280;45631;51.962;5.974;2022-12-07T05:13:18;101547.16;;;1.78;100.00
59757;BME280;45631;51.962;5.974;2022-12-07T05:15:46;101561.06;;;1.74;100.00
59757;BME280;45631;51.962;5.974;2022-12-07T05:18:17;101546.38;;;1.73;100.00
59757;BME280;45631;51.962;5.974;2022-12-07T05:20:45;101549.03;;;1.69;100.00
59757;BME280;45631;51.962;5.974;2022-12-07T05:23:13;101552.47;;;1.70;100.00
59757;BME280;45631;51.962;5.974;2022-12-07T05:25:41;101549.97;;;1.65;100.00
59757;BME280;45631;51.962;5.974;2022-12-07T05:28:11;101546.56;;;1.62;100.00
59757;BME280;45631;51.962;5.974;2022-12-07T05:30:39;101544.97;;;1.53;100.00
59757;BME280;45631;51.962;5.974;2022-12-07T05:33:07;101545.81;;;1.54;100.00
59757;BME280;45631;51.962;5.974;2022-12-07T05:35:35;101561.38;;;1.54;100.00
59757;BME280;45631;51.962;5.974;2022-12-07T05:38:04;101558.81;;;1.52;100.00
59757;BME280;45631;51.962;5.974;2022-12-07T05:40:32;101553.66;;;1.50;100.00
59757;BME280;45631;51.962;5.974;2022-12-07T05:43:00;101552.81;;;1.48;100.00
59757;BME280;45631;51.962;5.974;2022-12-07T05:45:32;101554.66;;;1.43;100.00
59757;BME280;45631;51.962;5.974;2022-12-07T05:48:00;101552.06;;;1.43;100.00
59757;BME280;45631;51.962;5.974;2022-12-07T05:50:28;101556.41;;;1.41;100.00
59757;BME280;45631;51.962;5.974;2022-12-07T05:52:56;101559.06;;;1.37;100.00
59757;BME280;45631;51.962;5.974;2022-12-07T05:55:24;101556.50;;;1.35;100.00
59757;BME280;45631;51.962;5.974;2022-12-07T05:57:52;101558.22;;;1.34;100.00
59757;BME280;45631;51.962;5.974;2022-12-07T06:00:35;101559.94;;;1.35;100.00
59757;BME280;45631;51.962;5.974;2022-12-07T06:03:03;101559.09;;;1.35;100.00
59757;BME280;45631;51.962;5.974;2022-12-07T06:05:31;101553.97;;;1.30;100.00
59757;BME280;45631;51.962;5.974;2022-12-07T06:07:59;101547.09;;;1.28;100.00
59757;BME280;45631;51.962;5.974;2022-12-07T06:10:31;101547.97;;;1.27;100.00
59757;BME280;45631;51.962;5.974;2022-12-07T06:12:59;101545.38;;;1.27;100.00
59757;BME280;45631;51.962;5.974;2022-12-07T06:15:27;101543.72;;;1.23;100.00
59757;BME280;45631;51.962;5.974;2022-12-07T06:17:56;101550.69;;;1.19;100.00
59757;BME280;45631;51.962;5.974;2022-12-07T06:20:27;101553.25;;;1.21;100.00
59757;BME280;45631;51.962;5.974;2022-12-07T06:22:55;101549.81;;;1.20;100.00
59757;BME280;45631;51.962;5.974;2022-12-07T06:25:23;101548.97;;;1.18;100.00
59757;BME280;45631;51.962;5.974;2022-12-07T06:27:51;101548.13;;;1.17;100.00
59757;BME280;45631;51.962;5.974;2022-12-07T06:30:22;101556.72;;;1.20;100.00
59757;BME280;45631;51.962;5.974;2022-12-07T06:32:50;101549.06;;;1.12;100.00
59757;BME280;45631;51.962;5.974;2022-12-07T06:35:19;101551.66;;;1.10;100.00
59757;BME280;45631;51.962;5.974;2022-12-07T06:37:47;101552.59;;;1.06;100.00
59757;BME280;45631;51.962;5.974;2022-12-07T06:40:16;101554.41;;;0.99;100.00
59757;BME280;45631;51.962;5.974;2022-12-07T06:42:44;101553.59;;;0.96;100.00
59757;BME280;45631;51.962;5.974;2022-12-07T06:45:12;101551.88;;;0.96;100.00
59757;BME280;45631;51.962;5.974;2022-12-07T06:47:41;101556.16;;;0.97;100.00
59757;BME280;45631;51.962;5.974;2022-12-07T06:50:11;101557.13;;;0.92;100.00
59757;BME280;45631;51.962;5.974;2022-12-07T06:52:41;101557.97;;;0.92;100.00
59757;BME280;45631;51.962;5.974;2022-12-07T06:55:09;101557.13;;;0.92;100.00
59757;BME280;45631;51.962;5.974;2022-12-07T06:57:37;101560.66;;;0.84;100.00
59757;BME280;45631;51.962;5.974;2022-12-07T07:00:06;101559.81;;;0.84;100.00
59757;BME280;45631;51.962;5.974;2022-12-07T07:02:35;101561.66;;;0.74;100.00
59757;BME280;45631;51.962;5.974;2022-12-07T07:05:03;101565.97;;;0.72;100.00
59757;BME280;45631;51.962;5.974;2022-12-07T07:07:31;101562.50;;;0.78;100.00
59757;BME280;45631;51.962;5.974;2022-12-07T07:10:21;101560.75;;;0.78;100.00
59757;BME280;45631;51.962;5.974;2022-12-07T07:12:49;101552.94;;;0.81;100.00
59757;BME280;45631;51.962;5.974;2022-12-07T07:15:23;101562.41;;;0.82;100.00
59757;BME280;45631;51.962;5.974;2022-12-07T07:17:51;101558.09;;;0.83;100.00
59757;BME280;45631;51.962;5.974;2022-12-07T07:20:19;101564.13;;;0.83;100.00
59757;BME280;45631;51.962;5.974;2022-12-07T07:22:47;101566.69;;;0.87;100.00
59757;BME280;45631;51.962;5.974;2022-12-07T07:25:16;101561.53;;;0.83;100.00
59757;BME280;45631;51.962;5.974;2022-12-07T07:27:48;101567.63;;;0.81;100.00
59757;BME280;45631;51.962;5.974;2022-12-07T07:30:16;101565.97;;;0.75;100.00
59757;BME280;45631;51.962;5.974;2022-12-07T07:32:44;101565.13;;;0.72;100.00
59757;BME280;45631;51.962;5.974;2022-12-07T07:35:13;101564.31;;;0.68;100.00
59757;BME280;45631;51.962;5.974;2022-12-07T07:37:41;101573.00;;;0.64;100.00
59757;BME280;45631;51.962;5.974;2022-12-07T07:40:10;101564.44;;;0.59;100.00
59757;BME280;45631;51.962;5.974;2022-12-07T07:42:38;101569.63;;;0.59;100.00
59757;BME280;45631;51.962;5.974;2022-12-07T07:45:09;101570.56;;;0.52;100.00
59757;BME280;45631;51.962;5.974;2022-12-07T07:47:38;101572.28;;;0.51;100.00
59757;BME280;45631;51.962;5.974;2022-12-07T07:50:07;101567.13;;;0.51;100.00
59757;BME280;45631;51.962;5.974;2022-12-07T07:52:35;101567.06;;;0.54;100.00
59757;BME280;45631;51.962;5.974;2022-12-07T07:55:04;101570.56;;;0.52;100.00
59757;BME280;45631;51.962;5.974;2022-12-07T07:57:35;101572.28;;;0.51;100.00
59757;BME280;45631;51.962;5.974;2022-12-07T08:00:06;101561.91;;;0.53;100.00
59757;BME280;45631;51.962;5.974;2022-12-07T08:02:36;101569.72;;;0.51;100.00
59757;BME280;45631;51.962;5.974;2022-12-07T08:05:06;101575.72;;;0.53;100.00
59757;BME280;45631;51.962;5.974;2022-12-07T08:07:34;101568.84;;;0.52;100.00
59757;BME280;45631;51.962;5.974;2022-12-07T08:10:04;101573.94;;;0.57;100.00
59757;BME280;45631;51.962;5.974;2022-12-07T08:12:35;101576.53;;;0.57;100.00
59757;BME280;45631;51.962;5.974;2022-12-07T08:15:04;101582.56;;;0.59;100.00
59757;BME280;45631;51.962;5.974;2022-12-07T08:17:36;101582.41;;;0.71;100.00
59757;BME280;45631;51.962;5.974;2022-12-07T08:20:06;101586.59;;;0.81;100.00
59757;BME280;45631;51.962;5.974;2022-12-07T08:22:34;101588.91;;;1.03;100.00
59757;BME280;45631;51.962;5.974;2022-12-07T08:25:03;101590.41;;;1.20;100.00
59757;BME280;45631;51.962;5.974;2022-12-07T08:27:31;101588.59;;;1.26;100.00
59757;BME280;45631;51.962;5.974;2022-12-07T08:30:00;101591.03;;;1.37;100.00
59757;BME280;45631;51.962;5.974;2022-12-07T08:32:28;101588.34;;;1.43;100.00
59757;BME280;45631;51.962;5.974;2022-12-07T08:34:58;101601.31;;;1.42;100.00
59757;BME280;45631;51.962;5.974;2022-12-07T08:37:26;101598.75;;;1.40;100.00
59757;BME280;45631;51.962;5.974;2022-12-07T08:39:54;101599.59;;;1.42;100.00
59757;BME280;45631;51.962;5.974;2022-12-07T08:42:23;101598.72;;;1.43;100.00
59757;BME280;45631;51.962;5.974;2022-12-07T08:44:56;101603.88;;;1.45;100.00
59757;BME280;45631;51.962;5.974;2022-12-07T08:47:25;101597.78;;;1.47;100.00
59757;BME280;45631;51.962;5.974;2022-12-07T08:49:53;101588.97;;;1.58;100.00
59757;BME280;45631;51.962;5.974;2022-12-07T08:52:23;101584.47;;;1.69;100.00
59757;BME280;45631;51.962;5.974;2022-12-07T08:54:51;101575.81;;;1.70;100.00
59757;BME280;45631;51.962;5.974;2022-12-07T08:57:19;101581.00;;;1.70;100.00
59757;BME280;45631;51.962;5.974;2022-12-07T08:59:47;101587.03;;;1.72;100.00
59757;BME280;45631;51.962;5.974;2022-12-07T09:02:15;101584.44;;;1.72;100.00
59757;BME280;45631;51.962;5.974;2022-12-07T09:04:43;101590.44;;;1.74;100.00
59757;BME280;45631;51.962;5.974;2022-12-07T09:07:12;101582.63;;;1.76;100.00
59757;BME280;45631;51.962;5.974;2022-12-07T09:09:41;101590.41;;;1.77;100.00
59757;BME280;45631;51.962;5.974;2022-12-07T09:12:10;101589.53;;;1.77;100.00
59757;BME280;45631;51.962;5.974;2022-12-07T09:14:38;101585.03;;;1.86;100.00
59757;BME280;45631;51.962;5.974;2022-12-07T09:17:07;101585.72;;;1.99;100.00
59757;BME280;45631;51.962;5.974;2022-12-07T09:19:36;101582.91;;;2.12;100.00
59757;BME280;45631;51.962;5.974;2022-12-07T09:22:04;101587.03;;;2.24;100.00
59757;BME280;45631;51.962;5.974;2022-12-07T09:24:33;101584.28;;;2.30;100.00
59757;BME280;45631;51.962;5.974;2022-12-07T09:27:03;101588.53;;;2.34;100.00
59757;BME280;45631;51.962;5.974;2022-12-07T09:29:31;101590.13;;;2.43;100.00
59757;BME280;45631;51.962;5.974;2022-12-07T09:32:00;101587.25;;;2.57;100.00
59757;BME280;45631;51.962;5.974;2022-12-07T09:34:35;101592.34;;;2.61;100.00
59757;BME280;45631;51.962;5.974;2022-12-07T09:37:03;101592.19;;;2.69;100.00
59757;BME280;45631;51.962;5.974;2022-12-07T09:39:33;101589.41;;;2.78;100.00
59757;BME280;45631;51.962;5.974;2022-12-07T09:42:04;101589.13;;;2.92;100.00
59757;BME280;45631;51.962;5.974;2022-12-07T09:44:34;101594.13;;;3.01;100.00
59757;BME280;45631;51.962;5.974;2022-12-07T09:47:03;101585.31;;;3.09;100.00
59757;BME280;45631;51.962;5.974;2022-12-07T09:49:31;101584.34;;;3.13;100.00
59757;BME280;45631;51.962;5.974;2022-12-07T09:52:02;101584.19;;;3.19;100.00
59757;BME280;45631;51.962;5.974;2022-12-07T09:54:34;101582.34;;;3.24;100.00
59757;BME280;45631;51.962;5.974;2022-12-07T09:57:04;101589.09;;;3.33;100.00
59757;BME280;45631;51.962;5.974;2022-12-07T09:59:32;101575.91;;;3.41;100.00
59757;BME280;45631;51.962;5.974;2022-12-07T10:02:24;101574.91;;;3.46;100.00
59757;BME280;45631;51.962;5.974;2022-12-07T10:04:53;101572.22;;;3.51;100.00
59757;BME280;45631;51.962;5.974;2022-12-07T10:07:21;101572.09;;;3.55;100.00
59757;BME280;45631;51.962;5.974;2022-12-07T10:09:49;101572.00;;;3.60;100.00
59757;BME280;45631;51.962;5.974;2022-12-07T10:12:19;101572.75;;;3.64;100.00
59757;BME280;45631;51.962;5.974;2022-12-07T10:14:55;101569.19;;;3.68;100.00
59757;BME280;45631;51.962;5.974;2022-12-07T10:17:36;101569.97;;;3.71;100.00
59757;BME280;45631;51.962;5.974;2022-12-07T10:20:18;101567.31;;;3.73;100.00
59757;BME280;45631;51.962;5.974;2022-12-07T10:22:58;101566.44;;;3.74;100.00
59757;BME280;45631;51.962;5.974;2022-12-07T10:25:29;101561.97;;;3.79;100.00
59757;BME280;45631;51.962;5.974;2022-12-07T10:28:12;101553.25;;;3.80;100.00
59757;BME280;45631;51.962;5.974;2022-12-07T10:30:50;101555.91;;;3.79;100.00
59757;BME280;45631;51.962;5.974;2022-12-07T10:33:33;101553.44;;;3.74;100.00
59757;BME280;45631;51.962;5.974;2022-12-07T10:36:19;101544.66;;;3.78;100.00
59757;BME280;45631;51.962;5.974;2022-12-07T10:38:49;101541.91;;;3.83;100.00
59757;BME280;45631;51.962;5.974;2022-12-07T10:41:17;101539.28;;;3.84;100.00
59757;BME280;45631;51.962;5.974;2022-12-07T10:43:50;101543.59;;;3.85;100.00
59757;BME280;45631;51.962;5.974;2022-12-07T10:52:45;101543.22;;;4.01;100.00
59757;BME280;45631;51.962;5.974;2022-12-07T10:55:20;101541.28;;;4.07;100.00
59757;BME280;45631;51.962;5.974;2022-12-07T10:58:07;101531.50;;;4.17;100.00
59757;BME280;45631;51.962;5.974;2022-12-07T11:00:49;101521.78;;;4.22;100.00
59757;BME280;45631;51.962;5.974;2022-12-07T11:03:31;101527.56;;;4.34;100.00
59757;BME280;45631;51.962;5.974;2022-12-07T11:06:10;101520.50;;;4.37;100.00
59757;BME280;45631;51.962;5.974;2022-12-07T11:08:51;101512.47;;;4.45;100.00
59757;BME280;45631;51.962;5.974;2022-12-07T11:11:29;101515.06;;;4.45;100.00
59757;BME280;45631;51.962;5.974;2022-12-07T11:14:05;101513.19;;;4.50;100.00
59757;BME280;45631;51.962;5.974;2022-12-07T11:16:50;101514.97;;;4.48;100.00
59757;BME280;45631;51.962;5.974;2022-12-07T11:19:45;101513.31;;;4.46;100.00
59757;BME280;45631;51.962;5.974;2022-12-07T11:22:23;101514.97;;;4.48;100.00
59757;BME280;45631;51.962;5.974;2022-12-07T11:25:00;101511.38;;;4.52;100.00
59757;BME280;45631;51.962;5.974;2022-12-07T11:27:37;101506.09;;;4.55;100.00
59757;BME280;45631;51.962;5.974;2022-12-07T11:30:15;101501.69;;;4.57;100.00
59757;BME280;45631;51.962;5.974;2022-12-07T11:32:53;101499.03;;;4.59;100.00
59757;BME280;45631;51.962;5.974;2022-12-07T11:35:35;101493.88;;;4.57;100.00
59757;BME280;45631;51.962;5.974;2022-12-07T11:38:11;101488.66;;;4.57;100.00
59757;BME280;45631;51.962;5.974;2022-12-07T11:40:43;101489.56;;;4.56;100.00
59757;BME280;45631;51.962;5.974;2022-12-07T11:43:18;101484.34;;;4.56;100.00
59757;BME280;45631;51.962;5.974;2022-12-07T11:45:54;101486.94;;;4.56;100.00
59757;BME280;45631;51.962;5.974;2022-12-07T11:48:33;101485.16;;;4.59;100.00
59757;BME280;45631;51.962;5.974;2022-12-07T11:51:02;101482.59;;;4.57;100.00
59757;BME280;45631;51.962;5.974;2022-12-07T11:53:37;101473.84;;;4.60;100.00
59757;BME280;45631;51.962;5.974;2022-12-07T11:56:10;101472.91;;;4.62;100.00
59757;BME280;45631;51.962;5.974;2022-12-07T11:58:49;101480.72;;;4.62;100.00
59757;BME280;45631;51.962;5.974;2022-12-07T12:01:29;101470.31;;;4.62;100.00
59757;BME280;45631;51.962;5.974;2022-12-07T12:04:11;101475.41;;;4.65;100.00
59757;BME280;45631;51.962;5.974;2022-12-07T12:06:44;101465.03;;;4.64;100.00
59757;BME280;45631;51.962;5.974;2022-12-07T12:09:14;101466.03;;;4.60;100.00
59757;BME280;45631;51.962;5.974;2022-12-07T12:12:16;101462.44;;;4.64;100.00
59757;BME280;45631;51.962;5.974;2022-12-07T12:15:18;101458.06;;;4.64;100.00
59757;BME280;45631;51.962;5.974;2022-12-07T12:17:59;101458.03;;;4.66;100.00
59757;BME280;45631;51.962;5.974;2022-12-07T12:20:36;101459.78;;;4.65;100.00
59757;BME280;45631;51.962;5.974;2022-12-07T12:23:14;101456.47;;;4.60;100.00
59757;BME280;45631;51.962;5.974;2022-12-07T12:25:46;101453.06;;;4.56;100.00
59757;BME280;45631;51.962;5.974;2022-12-07T12:28:23;101448.78;;;4.55;100.00
59757;BME280;45631;51.962;5.974;2022-12-07T12:31:09;101447.06;;;4.54;100.00
59757;BME280;45631;51.962;5.974;2022-12-07T12:33:43;101446.22;;;4.54;100.00
59757;BME280;45631;51.962;5.974;2022-12-07T12:36:44;101437.50;;;4.55;100.00
59757;BME280;45631;51.962;5.974;2022-12-07T12:39:14;101446.09;;;4.59;100.00
59757;BME280;45631;51.962;5.974;2022-12-07T12:41:59;101444.31;;;4.59;100.00
59757;BME280;45631;51.962;5.974;2022-12-07T12:47:56;101435.34;;;4.69;100.00
59757;BME280;45631;51.962;5.974;2022-12-07T12:50:30;101436.78;;;4.78;100.00
59757;BME280;45631;51.962;5.974;2022-12-07T12:53:16;101427.75;;;4.90;100.00
59757;BME280;45631;51.962;5.974;2022-12-07T12:56:17;101434.22;;;5.05;100.00
59757;BME280;45631;51.962;5.974;2022-12-07T12:58:49;101427.94;;;5.11;100.00
59757;BME280;45631;51.962;5.974;2022-12-07T13:01:44;101414.72;;;5.17;100.00
59757;BME280;45631;51.962;5.974;2022-12-07T13:07:51;101408.50;;;5.19;100.00
59757;BME280;45631;51.962;5.974;2022-12-07T13:10:27;101406.72;;;5.21;100.00
59757;BME280;45631;51.962;5.974;2022-12-07T13:13:03;101393.56;;;5.24;100.00
59757;BME280;45631;51.962;5.974;2022-12-07T13:15:35;101395.44;;;5.21;100.00
59757;BME280;45631;51.962;5.974;2022-12-07T13:18:23;101395.28;;;5.25;100.00
59757;BME280;45631;51.962;5.974;2022-12-07T13:20:54;101401.31;;;5.28;100.00
59757;BME280;45631;51.962;5.974;2022-12-07T13:23:29;101390.88;;;5.28;100.00
59757;BME280;45631;51.962;5.974;2022-12-07T13:26:17;101393.63;;;5.23;100.00
59757;BME280;45631;51.962;5.974;2022-12-07T13:28:48;101397.00;;;5.27;100.00
59757;BME280;45631;51.962;5.974;2022-12-07T13:31:30;101388.28;;;5.28;100.00
59757;BME280;45631;51.962;5.974;2022-12-07T13:34:00;101380.53;;;5.24;100.00